Time;durP1;ratioP1;P1;durP2;ratioP2;P2;SDS_P1;SDS_P2;PMS_P1;PMS_P2;Temp;Humidity;BMP_temperature;BMP_pressure;BME280_temperature;BME280_humidity;BME280_pressure;Samples;Min_cycle;Max_cycle;Signal;HPM_P1;HPM_P2
2021/04/06 00:02:26;;;;;;;3.92;1.25;;;;;;;2.77;58.29;102202.41;5014430;28;20121;-45
2021/04/06 00:04:56;;;;;;;2.17;1.00;;;;;;;2.76;58.27;102195.28;5016950;28;20053;-50
2021/04/06 00:07:23;;;;;;;7.55;1.45;;;;;;;2.71;58.43;102192.50;5015358;28;20033;-52
2021/04/06 00:09:53;;;;;;;8.77;4.10;;;;;;;2.73;58.30;102190.31;5030156;28;20049;-47
2021/04/06 00:12:23;;;;;;;2.65;1.27;;;;;;;2.62;59.03;102191.28;5013009;28;20073;-44
2021/04/06 00:14:52;;;;;;;4.93;1.27;;;;;;;2.58;59.12;102186.59;5015736;28;20161;-51
2021/04/06 00:17:19;;;;;;;8.23;1.50;;;;;;;2.58;59.31;102186.59;5012224;28;20096;-48
2021/04/06 00:19:47;;;;;;;6.88;2.05;;;;;;;2.57;59.07;102188.50;5029137;28;20077;-50
2021/04/06 00:22:17;;;;;;;9.85;1.90;;;;;;;2.51;59.58;102192.28;5018158;28;20066;-51
2021/04/06 00:24:50;;;;;;;4.97;1.35;;;;;;;2.42;59.62;102188.34;5024082;28;20042;-44
2021/04/06 00:27:20;;;;;;;2.13;1.20;;;;;;;2.39;60.01;102194.31;5012156;28;20056;-51
2021/04/06 00:29:52;;;;;;;3.75;1.30;;;;;;;2.35;60.08;102196.75;5029525;28;20124;-48
2021/04/06 00:32:21;;;;;;;4.55;1.92;;;;;;;2.31;60.16;102186.56;5032680;28;20481;-48
2021/04/06 00:34:51;;;;;;;8.00;3.33;;;;;;;2.29;60.61;102188.75;5011187;28;20159;-47
2021/04/06 00:37:18;;;;;;;7.07;1.60;;;;;;;2.29;60.43;102186.00;5030578;28;20073;-47
2021/04/06 00:39:46;;;;;;;6.93;1.38;;;;;;;2.25;60.21;102182.16;5021497;28;20038;-50
2021/04/06 00:42:14;;;;;;;4.72;1.35;;;;;;;2.21;60.83;102181.00;5011001;28;20057;-49
2021/04/06 00:44:47;;;;;;;4.68;1.30;;;;;;;2.21;61.25;102186.47;4999390;28;20124;-50
2021/04/06 00:47:22;;;;;;;6.72;1.48;;;;;;;2.16;60.97;102179.03;5015819;28;20129;-47
2021/04/06 00:49:48;;;;;;;9.15;2.85;;;;;;;2.21;60.87;102175.53;4995402;28;20137;-46
2021/04/06 00:52:16;;;;;;;4.03;1.35;;;;;;;2.25;60.46;102182.16;4993877;28;20093;-49
2021/04/06 00:54:42;;;;;;;3.92;1.33;;;;;;;2.20;60.94;102179.31;4985111;28;20055;-51
2021/04/06 00:57:13;;;;;;;3.90;1.00;;;;;;;2.17;61.74;102174.41;5007068;28;20141;-48
2021/04/06 01:00:17;;;;;;;3.22;1.30;;;;;;;2.13;62.20;102171.34;5001912;28;20369;-47
2021/04/06 01:03:17;;;;;;;4.57;1.40;;;;;;;2.11;61.71;102172.69;5000958;28;20042;-47
2021/04/06 01:05:58;;;;;;;2.60;1.15;;;;;;;2.07;62.08;102177.81;4986381;28;20153;-50
2021/04/06 01:08:29;;;;;;;8.40;2.25;;;;;;;2.07;61.79;102168.78;4994647;28;20515;-45
2021/04/06 01:10:56;;;;;;;6.80;1.20;;;;;;;2.08;61.66;102167.72;4992179;28;20127;-47
2021/04/06 01:13:23;;;;;;;3.90;1.73;;;;;;;2.06;61.83;102176.19;4992766;28;20069;-46
2021/04/06 01:15:55;;;;;;;7.18;1.75;;;;;;;2.07;61.76;102169.63;4993423;28;20078;-48
2021/04/06 01:18:23;;;;;;;12.63;1.63;;;;;;;2.10;61.49;102168.28;4999409;28;20168;-49
2021/04/06 01:20:56;;;;;;;6.68;1.90;;;;;;;2.07;61.96;102168.78;5011618;28;20058;-47
2021/04/06 01:23:24;;;;;;;5.90;1.35;;;;;;;2.00;62.06;102162.69;5000107;28;20098;-48
2021/04/06 01:25:57;;;;;;;5.78;1.60;;;;;;;2.00;62.16;102157.22;4992751;28;20046;-47
2021/04/06 01:28:32;;;;;;;4.03;1.92;;;;;;;1.98;62.62;102159.41;5000624;28;20395;-48
2021/04/06 01:31:02;;;;;;;4.60;1.67;;;;;;;1.98;62.36;102159.41;4976630;28;20047;-45
2021/04/06 01:33:31;;;;;;;7.25;1.23;;;;;;;1.95;62.38;102157.16;4990506;28;20037;-46
2021/04/06 01:35:59;;;;;;;3.70;1.00;;;;;;;1.91;62.44;102159.56;4995242;28;20137;-45
2021/04/06 01:38:27;;;;;;;5.78;1.40;;;;;;;1.91;62.43;102158.78;5000507;28;20121;-47
2021/04/06 01:40:55;;;;;;;2.90;1.23;;;;;;;1.89;62.49;102160.91;4999535;28;20070;-47
2021/04/06 01:43:25;;;;;;;2.28;0.88;;;;;;;1.90;62.84;102163.41;4999201;28;20547;-46
2021/04/06 01:46:15;;;;;;;3.80;1.13;;;;;;;1.87;63.58;102157.59;5001663;28;20125;-47
2021/04/06 01:48:42;;;;;;;5.25;0.98;;;;;;;1.87;62.74;102158.44;4999927;28;20117;-45
2021/04/06 01:51:09;;;;;;;4.25;1.50;;;;;;;1.83;62.68;102154.53;4991598;28;20073;-46
2021/04/06 01:53:36;;;;;;;4.93;1.38;;;;;;;1.81;62.91;102149.34;4991602;28;20047;-50
2021/04/06 01:56:08;;;;;;;6.43;1.33;;;;;;;1.81;62.80;102146.63;4994879;28;20096;-47
2021/04/06 01:58:39;;;;;;;5.13;1.05;;;;;;;1.81;63.12;102149.34;4999026;28;20057;-45
2021/04/06 02:01:18;;;;;;;7.20;1.50;;;;;;;1.78;63.06;102160.78;4989297;28;20448;-46
2021/04/06 02:03:53;;;;;;;7.90;1.50;;;;;;;1.72;63.05;102150.84;4993915;28;20042;-45
2021/04/06 02:06:20;;;;;;;3.83;1.02;;;;;;;1.71;63.30;102154.69;5009072;28;20057;-47
2021/04/06 02:08:49;;;;;;;7.63;1.45;;;;;;;1.73;63.42;102155.25;4998271;28;20081;-47
2021/04/06 02:11:18;;;;;;;4.30;1.92;;;;;;;1.74;63.16;102158.81;5001420;28;20046;-45
2021/04/06 02:13:45;;;;;;;6.22;1.05;;;;;;;1.70;63.25;102161.22;5004079;28;20507;-47
2021/04/06 02:16:11;;;;;;;3.95;1.83;;;;;;;1.70;63.36;102150.28;4991185;28;20050;-46
2021/04/06 02:18:38;;;;;;;1.63;0.77;;;;;;;1.68;63.60;102162.53;5008451;28;20045;-47
2021/04/06 02:21:06;;;;;;;8.30;1.42;;;;;;;1.68;63.59;102149.72;4999175;28;20048;-46
2021/04/06 02:23:36;;;;;;;4.95;2.08;;;;;;;1.67;64.42;102153.50;4996000;28;20125;-49
2021/04/06 02:26:03;;;;;;;6.35;1.50;;;;;;;1.65;63.79;102152.94;4994058;28;20046;-50
2021/04/06 02:28:30;;;;;;;3.40;0.82;;;;;;;1.63;63.95;102149.66;5000848;28;20117;-45
2021/04/06 02:30:58;;;;;;;5.07;1.38;;;;;;;1.56;64.38;102153.66;5002773;28;20152;-51
2021/04/06 02:33:30;;;;;;;2.60;1.10;;;;;;;1.54;64.88;102142.97;4999819;28;20054;-45
2021/04/06 02:35:59;;;;;;;5.72;1.13;;;;;;;1.54;64.54;102147.59;4999963;28;20050;-46
2021/04/06 02:38:30;;;;;;;3.33;1.50;;;;;;;1.50;64.43;102146.44;5000802;28;20045;-48
2021/04/06 02:41:11;;;;;;;7.70;1.35;;;;;;;1.49;64.93;102144.78;5008549;28;20437;-46
2021/04/06 02:43:44;;;;;;;2.70;0.88;;;;;;;1.50;64.56;102152.75;4993648;28;20070;-46
2021/04/06 02:46:12;;;;;;;3.13;1.15;;;;;;;1.48;64.97;102140.44;5001125;28;20065;-48
2021/04/06 02:48:54;;;;;;;2.72;0.93;;;;;;;1.48;64.97;102145.88;4995081;28;20050;-47
2021/04/06 02:51:21;;;;;;;6.57;1.13;;;;;;;1.45;64.91;102141.75;4993158;28;20078;-46
2021/04/06 02:53:53;;;;;;;3.40;1.00;;;;;;;1.48;65.36;102133.06;5001940;28;20128;-50
2021/04/06 02:56:36;;;;;;;5.38;0.93;;;;;;;1.53;66.73;102130.41;4994142;28;20125;-46
2021/04/06 02:59:21;;;;;;;4.32;0.82;;;;;;;1.50;66.90;102139.09;5005355;28;20046;-48
2021/04/06 03:01:57;;;;;;;5.03;1.08;;;;;;;1.45;65.88;102139.03;4977882;28;20046;-45
2021/04/06 03:04:26;;;;;;;5.40;1.02;;;;;;;1.46;65.49;102135.19;4999420;28;20073;-46
2021/04/06 03:07:00;;;;;;;5.47;0.90;;;;;;;1.48;66.17;102132.25;4990938;28;20101;-46
2021/04/06 03:09:26;;;;;;;5.18;1.00;;;;;;;1.44;65.80;102131.91;5002421;28;20406;-47
2021/04/06 03:11:57;;;;;;;2.67;0.80;;;;;;;1.50;65.91;102136.38;5005798;28;20574;-50
2021/04/06 03:14:25;;;;;;;9.00;1.40;;;;;;;1.54;65.54;102136.66;4994968;28;20045;-48
2021/04/06 03:16:53;;;;;;;6.55;1.08;;;;;;;1.57;65.74;102139.72;5010371;28;20410;-46
2021/04/06 03:19:32;;;;;;;2.88;1.10;;;;;;;1.58;66.69;102138.66;4995746;28;20077;-49
2021/04/06 03:21:58;;;;;;;4.60;1.40;;;;;;;1.56;66.22;102137.28;5004798;28;20130;-45
2021/04/06 03:24:28;;;;;;;5.00;1.95;;;;;;;1.57;66.18;102136.16;4990054;28;20092;-48
2021/04/06 03:27:03;;;;;;;2.78;0.77;;;;;;;1.64;65.95;102125.91;4990474;28;20451;-46
2021/04/06 03:29:31;;;;;;;1.58;0.80;;;;;;;1.67;66.20;102114.47;4988715;28;20042;-49
2021/04/06 03:31:58;;;;;;;3.60;0.70;;;;;;;1.69;65.57;102107.72;5004289;28;20136;-44
2021/04/06 03:34:33;;;;;;;4.28;0.95;;;;;;;1.71;66.81;102115.63;5006137;28;20046;-47
2021/04/06 03:37:02;;;;;;;5.72;1.08;;;;;;;1.72;66.42;102106.38;4999516;28;20120;-49
2021/04/06 03:39:36;;;;;;;4.75;1.35;;;;;;;1.73;66.47;102100.66;4994794;28;20045;-48
2021/04/06 03:42:03;;;;;;;8.45;1.98;;;;;;;1.75;66.54;102095.75;5005540;28;20136;-49
2021/04/06 03:44:31;;;;;;;3.80;1.15;;;;;;;1.77;66.26;102099.03;5010138;28;20132;-46
2021/04/06 03:47:00;;;;;;;8.85;0.70;;;;;;;1.77;66.26;102104.50;5005783;28;20555;-47
2021/04/06 03:49:28;;;;;;;3.83;0.98;;;;;;;1.78;66.94;102100.72;5013719;28;20042;-45
2021/04/06 03:52:03;;;;;;;2.63;0.63;;;;;;;1.72;67.45;102101.72;5024419;28;20117;-49
2021/04/06 03:54:35;;;;;;;3.05;1.00;;;;;;;1.76;67.06;102108.34;4998688;28;20485;-49
2021/04/06 03:57:19;;;;;;;;;;;;;;;1.80;67.68;102117.66;5020848;28;20073;-48
2021/04/06 03:59:45;;;;;;;4.95;0.70;;;;;;;1.81;66.65;102115.75;5023691;28;20015;-45
2021/04/06 04:02:12;;;;;;;5.70;0.98;;;;;;;1.79;66.81;102115.19;5023109;28;20049;-51
2021/04/06 04:04:38;;;;;;;3.58;0.70;;;;;;;1.81;66.87;102110.28;5016028;28;20128;-50
2021/04/06 04:07:07;;;;;;;4.10;0.98;;;;;;;1.78;67.42;102100.72;5017510;28;20092;-45
2021/04/06 04:09:34;;;;;;;1.90;1.13;;;;;;;1.76;67.51;102089.22;5022095;28;20053;-48
2021/04/06 04:12:00;;;;;;;6.50;0.95;;;;;;;1.72;67.49;102079.88;5018107;28;20133;-46
2021/04/06 04:14:26;;;;;;;8.75;3.00;;;;;;;1.74;67.39;102071.44;5025337;28;20042;-47
2021/04/06 04:16:53;;;;;;;3.33;1.10;;;;;;;1.80;67.08;102063.06;5026761;28;20124;-48
2021/04/06 04:19:20;;;;;;;6.60;1.40;;;;;;;1.70;67.65;102054.75;5026504;28;20045;-49
2021/04/06 04:21:46;;;;;;;6.03;1.10;;;;;;;1.65;67.50;102051.94;5015302;28;20592;-50
2021/04/06 04:24:13;;;;;;;3.92;2.15;;;;;;;1.63;67.72;102059.56;5021334;28;20395;-47
2021/04/06 04:26:40;;;;;;;5.85;1.30;;;;;;;1.55;68.18;102070.09;4995819;28;20042;-47
2021/04/06 04:29:06;;;;;;;3.42;1.02;;;;;;;1.50;68.19;102059.94;5030742;28;20509;-49
2021/04/06 04:31:33;;;;;;;2.80;1.05;;;;;;;1.44;68.25;102060.97;5027011;28;20064;-48
2021/04/06 04:33:59;;;;;;;3.10;1.13;;;;;;;1.43;68.15;102070.22;5024360;28;20550;-49
2021/04/06 04:36:25;;;;;;;5.90;0.82;;;;;;;1.40;68.36;102070.75;5021593;28;20482;-49
2021/04/06 04:38:51;;;;;;;3.42;1.90;;;;;;;1.38;68.19;102075.59;5030220;28;20061;-47
2021/04/06 04:41:18;;;;;;;2.72;0.88;;;;;;;1.39;68.20;102080.00;5017671;28;20046;-46
2021/04/06 04:43:44;;;;;;;2.85;1.10;;;;;;;1.31;69.21;102072.25;5032313;28;20079;-47
2021/04/06 04:46:10;;;;;;;1.30;0.70;;;;;;;1.29;68.99;102066.22;5014105;28;20057;-46
2021/04/06 04:48:37;;;;;;;2.90;0.88;;;;;;;1.28;69.15;102070.00;5032366;28;20077;-46
2021/04/06 04:51:03;;;;;;;2.25;1.45;;;;;;;1.34;68.94;102060.81;5014009;28;20099;-46
2021/04/06 04:53:30;;;;;;;3.40;0.85;;;;;;;1.31;69.06;102055.03;5028861;28;20077;-47
2021/04/06 04:55:56;;;;;;;6.38;1.10;;;;;;;1.29;68.97;102049.84;5012939;28;20384;-49
2021/04/06 04:58:22;;;;;;;7.88;1.30;;;;;;;1.30;69.17;102056.94;5011451;28;20038;-47
2021/04/06 05:00:48;;;;;;;4.70;0.93;;;;;;;1.28;69.20;102074.63;5012171;28;20076;-49
2021/04/06 05:03:15;;;;;;;3.05;1.73;;;;;;;1.30;69.10;102064.31;5019370;28;20498;-47
2021/04/06 05:05:41;;;;;;;5.45;1.30;;;;;;;1.27;69.59;102056.63;5014669;28;20465;-46
2021/04/06 05:08:07;;;;;;;2.15;0.52;;;;;;;1.26;68.92;102072.16;5016219;28;20129;-52
2021/04/06 05:10:33;;;;;;;6.35;0.95;;;;;;;1.29;69.20;102073.56;5011749;28;20132;-50
2021/04/06 05:13:00;;;;;;;3.05;0.98;;;;;;;1.32;69.43;102068.44;5012476;28;20133;-50
2021/04/06 05:15:29;;;;;;;5.13;0.88;;;;;;;1.28;70.05;102069.16;5031473;28;20049;-46
2021/04/06 05:17:56;;;;;;;7.32;1.27;;;;;;;1.30;69.79;102064.31;5031213;28;20575;-46
2021/04/06 05:20:23;;;;;;;7.15;0.95;;;;;;;1.28;70.05;102058.25;5031947;28;20045;-47
2021/04/06 05:22:50;;;;;;;2.25;1.02;;;;;;;1.27;70.07;102067.53;5023050;28;20042;-46
2021/04/06 05:25:16;;;;;;;0.80;0.80;;;;;;;1.25;70.03;102051.41;5008282;28;20100;-45
2021/04/06 05:27:44;;;;;;;2.70;1.17;;;;;;;1.20;70.49;102059.53;5011416;28;20405;-46
2021/04/06 05:30:11;;;;;;;0.93;0.85;;;;;;;1.22;70.26;102060.09;5016087;28;20045;-48
2021/04/06 05:32:37;;;;;;;3.47;1.08;;;;;;;1.23;69.99;102053.56;5015968;28;20073;-46
2021/04/06 05:35:05;;;;;;;3.78;0.90;;;;;;;1.21;70.02;102063.91;5027193;28;20160;-49
2021/04/06 05:37:31;;;;;;;2.40;0.90;;;;;;;1.22;70.58;102076.44;5011099;28;20443;-49
2021/04/06 05:39:58;;;;;;;5.07;1.02;;;;;;;1.29;70.47;102074.41;5011591;28;20049;-45
2021/04/06 05:42:24;;;;;;;4.80;1.40;;;;;;;1.33;70.67;102080.16;5029029;28;20439;-47
2021/04/06 05:44:51;;;;;;;5.80;1.25;;;;;;;1.35;70.65;102078.81;5020422;28;20448;-47
2021/04/06 05:47:22;;;;;;;5.95;1.10;;;;;;;1.36;70.65;102077.75;5026711;28;20072;-48
2021/04/06 05:49:49;;;;;;;6.85;1.20;;;;;;;1.42;70.25;102076.75;5018064;28;20108;-46
2021/04/06 05:52:15;;;;;;;5.03;1.42;;;;;;;1.45;70.41;102073.53;5002886;28;20081;-46
2021/04/06 05:54:42;;;;;;;7.07;1.20;;;;;;;1.40;70.74;102075.38;5009713;28;20042;-46
2021/04/06 05:57:08;;;;;;;5.10;1.00;;;;;;;1.36;70.62;102085.13;5014679;28;20062;-48
2021/04/06 05:59:35;;;;;;;2.47;0.70;;;;;;;1.32;71.08;102083.97;5021154;28;20148;-48
2021/04/06 06:02:02;;;;;;;6.85;1.35;;;;;;;1.35;70.78;102095.19;5024471;28;20120;-49
2021/04/06 06:04:28;;;;;;;4.35;1.00;;;;;;;1.41;70.89;102094.19;5010184;28;20097;-48
2021/04/06 06:06:55;;;;;;;5.68;1.27;;;;;;;1.42;70.85;102095.03;5012097;28;20053;-46
2021/04/06 06:09:32;;;;;;;6.47;1.67;;;;;;;1.41;72.04;102091.47;5019288;28;20544;-47
2021/04/06 06:12:03;;;;;;;7.38;1.20;;;;;;;1.44;71.09;102099.16;5021899;28;20034;-49
2021/04/06 06:14:32;;;;;;;3.03;0.70;;;;;;;1.41;70.90;102093.38;5011699;28;20135;-50
2021/04/06 06:17:13;;;;;;;7.80;1.63;;;;;;;1.44;71.77;102090.97;5012861;28;20099;-50
2021/04/06 06:19:41;;;;;;;4.70;1.30;;;;;;;1.46;71.39;102097.00;5014777;28;20033;-49
2021/04/06 06:22:28;;;;;;;4.80;1.42;;;;;;;1.44;72.49;102093.69;5014930;28;20727;-53
2021/04/06 06:25:11;;;;;;;5.05;1.27;;;;;;;1.51;71.53;102099.78;5024881;28;20049;-46
2021/04/06 06:27:43;;;;;;;2.08;1.13;;;;;;;1.53;71.51;102086.75;4989750;28;20049;-48
2021/04/06 06:33:21;;;;;;;7.65;1.55;;;;;;;1.67;71.74;102082.53;5021960;28;20499;-48
2021/04/06 06:35:51;;;;;;;5.43;0.95;;;;;;;1.71;71.58;102080.16;5013014;28;20057;-50
2021/04/06 06:38:22;;;;;;;4.57;1.45;;;;;;;1.73;71.46;102086.16;5010281;28;20088;-47
2021/04/06 06:40:54;;;;;;;12.73;1.83;;;;;;;1.76;71.24;102097.41;5018770;28;20047;-46
2021/04/06 06:43:23;;;;;;;10.07;1.27;;;;;;;1.89;71.00;102095.38;5015385;28;20088;-48
2021/04/06 06:45:52;;;;;;;10.77;1.45;;;;;;;1.95;71.27;102095.19;5015344;28;20073;-48
2021/04/06 06:48:28;;;;;;;11.35;2.28;;;;;;;1.96;71.10;102085.09;5023230;28;20061;-47
2021/04/06 06:50:56;;;;;;;6.85;2.30;;;;;;;1.95;71.28;102088.91;5011848;28;20064;-47
2021/04/06 06:53:40;;;;;;;12.45;2.45;;;;;;;1.96;72.06;102087.81;4990433;28;20077;-48
2021/04/06 06:56:09;;;;;;;7.30;1.75;;;;;;;1.95;71.37;102084.25;5020952;28;20041;-47
2021/04/06 06:58:41;;;;;;;4.35;1.00;;;;;;;1.98;71.46;102091.13;5009799;28;20049;-48
2021/04/06 07:01:24;;;;;;;4.07;1.10;;;;;;;2.07;71.42;102081.38;5023506;28;20048;-48
2021/04/06 07:04:07;;;;;;;5.35;1.33;;;;;;;2.12;71.68;102078.72;5012159;28;20105;-49
2021/04/06 07:06:41;;;;;;;5.60;2.35;;;;;;;2.12;70.86;102076.00;5012413;28;20137;-47
2021/04/06 07:09:24;;;;;;;5.95;2.97;;;;;;;2.03;71.10;102080.25;5012568;28;20129;-48
2021/04/06 07:12:01;;;;;;;4.65;1.33;;;;;;;1.95;71.01;102078.81;5018116;28;20073;-49
2021/04/06 07:14:29;;;;;;;5.28;1.30;;;;;;;1.87;71.31;102072.97;5013291;28;20531;-50
2021/04/06 07:17:01;;;;;;;6.35;1.42;;;;;;;1.85;71.56;102071.28;5015915;28;20080;-47
2021/04/06 07:19:30;;;;;;;3.63;1.08;;;;;;;1.90;71.57;102069.72;5014038;28;20096;-45
2021/04/06 07:22:00;;;;;;;7.05;2.15;;;;;;;2.01;71.03;102076.97;5012902;28;20115;-48
2021/04/06 07:24:37;;;;;;;7.15;1.38;;;;;;;2.00;71.18;102075.28;5018553;28;20057;-47
2021/04/06 07:27:07;;;;;;;6.85;1.40;;;;;;;2.00;71.37;102076.13;5012227;28;20141;-46
2021/04/06 07:29:34;;;;;;;4.68;1.23;;;;;;;2.03;71.79;102080.25;5013418;28;20045;-48
2021/04/06 07:32:01;;;;;;;6.28;1.17;;;;;;;2.12;71.55;102084.19;5013311;28;20050;-50
2021/04/06 07:34:29;;;;;;;3.55;1.27;;;;;;;2.26;71.60;102085.41;5023724;28;20129;-49
2021/04/06 07:37:02;;;;;;;7.43;2.28;;;;;;;2.28;71.68;102091.44;5014172;28;20542;-48
2021/04/06 07:39:30;;;;;;;4.90;1.25;;;;;;;2.32;71.27;102089.88;5012760;28;20065;-49
2021/04/06 07:41:56;;;;;;;4.05;1.10;;;;;;;2.36;70.96;102080.88;5013416;28;20077;-50
2021/04/06 07:44:25;;;;;;;9.60;2.25;;;;;;;2.46;70.98;102074.72;5020295;28;20045;-49
2021/04/06 07:46:52;;;;;;;5.22;1.48;;;;;;;2.53;70.52;102075.31;5019630;28;20468;-45
2021/04/06 07:49:19;;;;;;;5.80;2.33;;;;;;;2.57;70.84;102070.97;4993020;28;20136;-50
2021/04/06 07:51:46;;;;;;;11.60;1.80;;;;;;;2.59;70.96;102074.28;4993019;28;20042;-49
2021/04/06 07:54:23;;;;;;;14.50;2.15;;;;;;;2.60;71.18;102062.25;5000000;28;20065;-47
2021/04/06 07:56:51;;;;;;;3.20;1.00;;;;;;;2.62;70.85;102062.81;4993077;28;20046;-46
2021/04/06 07:59:20;;;;;;;3.28;0.90;;;;;;;2.70;70.34;102051.38;4975831;28;20463;-48
2021/04/06 08:01:49;;;;;;;9.63;2.33;;;;;;;2.76;70.25;102052.25;4993119;28;20046;-47
2021/04/06 08:04:20;;;;;;;6.88;1.35;;;;;;;2.85;70.27;102057.00;4993376;28;20070;-47
2021/04/06 08:06:47;;;;;;;8.10;1.75;;;;;;;2.90;70.14;102058.94;4982787;28;20047;-45
2021/04/06 08:09:30;;;;;;;7.07;1.48;;;;;;;2.90;70.13;102059.78;4973366;28;20454;-46
2021/04/06 08:12:06;;;;;;;6.00;1.35;;;;;;;2.96;70.09;102047.78;4985186;28;20058;-47
2021/04/06 08:15:09;;;;;;;12.75;1.00;;;;;;;3.04;69.92;102055.47;4987291;28;20162;-52
2021/04/06 08:17:35;;;;;;;4.18;0.63;;;;;;;3.11;69.68;102059.91;4972137;28;20145;-46
2021/04/06 08:20:13;;;;;;;6.55;0.82;;;;;;;3.20;69.88;102056.44;5008764;28;20054;-47
2021/04/06 08:22:43;;;;;;;2.00;1.30;;;;;;;3.28;69.96;102055.09;4997635;28;20361;-50
2021/04/06 08:25:15;;;;;;;2.75;1.08;;;;;;;3.38;70.30;102049.69;4994559;28;20100;-47
2021/04/06 08:27:43;;;;;;;8.15;1.10;;;;;;;3.47;70.30;102056.28;4994019;28;20046;-51
2021/04/06 08:30:15;;;;;;;3.55;1.23;;;;;;;3.56;70.28;102046.47;4992085;28;20075;-54
2021/04/06 08:33:02;;;;;;;;;;;;;;;3.65;69.93;102061.31;4986398;28;20093;-50
2021/04/06 08:38:22;;;;;;;7.63;0.70;;;;;;;3.91;69.32;102049.38;4983202;28;20086;-50
2021/04/06 08:40:48;;;;;;;3.05;1.10;;;;;;;4.12;71.25;102059.28;4991461;28;20054;-49
2021/04/06 08:43:27;;;;;;;7.68;1.00;;;;;;;4.44;71.54;102052.78;4991897;28;20105;-48
2021/04/06 08:45:58;;;;;;;11.15;1.25;;;;;;;4.72;72.35;102057.72;5011519;28;20069;-48
2021/04/06 08:48:43;;;;;;;9.73;1.52;;;;;;;4.87;68.79;102065.97;5007177;28;20060;-47
2021/04/06 08:51:25;;;;;;;7.35;1.95;;;;;;;5.13;72.70;102056.59;4974008;28;20133;-50
2021/04/06 08:53:55;;;;;;;2.78;0.90;;;;;;;5.57;73.31;102055.94;4994525;28;20046;-50
2021/04/06 08:56:27;;;;;;;1.92;0.60;;;;;;;6.14;69.78;102053.53;4993719;28;20051;-52
2021/04/06 08:59:12;;;;;;;;;;;;;;;6.81;66.68;102046.41;5000414;28;20141;-52
2021/04/06 09:01:39;;;;;;;5.05;1.95;;;;;;;7.92;69.98;102049.63;5007372;28;19925;-50
2021/04/06 09:04:15;;;;;;;3.10;1.05;;;;;;;8.67;66.77;102054.34;4996729;28;20121;-50
2021/04/06 09:06:42;;;;;;;1.90;0.55;;;;;;;9.24;64.51;102050.34;4999159;28;20530;-49
2021/04/06 09:09:09;;;;;;;3.20;1.00;;;;;;;9.86;62.53;102052.41;4992650;28;20050;-49
2021/04/06 09:11:38;;;;;;;3.92;1.00;;;;;;;10.35;59.40;102046.13;5001745;28;20440;-49
2021/04/06 09:14:05;;;;;;;7.28;1.10;;;;;;;10.68;57.77;102043.94;5004621;28;20140;-50
2021/04/06 09:16:34;;;;;;;4.47;1.17;;;;;;;10.89;56.20;102039.50;5011732;28;20411;-51
2021/04/06 09:19:13;;;;;;;3.38;1.30;;;;;;;11.12;55.04;102038.34;5007575;28;20552;-47
2021/04/06 09:21:43;;;;;;;3.22;1.10;;;;;;;11.46;54.29;102038.53;4991820;28;20046;-49
2021/04/06 09:24:11;;;;;;;3.15;0.77;;;;;;;11.69;53.19;102024.63;4992805;28;20049;-49
2021/04/06 09:26:38;;;;;;;4.80;1.10;;;;;;;11.87;51.90;102029.06;5008961;28;20117;-49
2021/04/06 09:29:12;;;;;;;6.28;1.40;;;;;;;12.09;49.52;102049.22;4988143;28;20086;-49
2021/04/06 09:31:50;;;;;;;5.57;2.28;;;;;;;12.10;48.09;102036.13;4984669;28;20152;-48
2021/04/06 09:34:21;;;;;;;4.78;0.90;;;;;;;11.98;47.39;102050.66;5008218;28;20117;-52
2021/04/06 09:36:56;;;;;;;6.53;1.08;;;;;;;12.29;48.21;102047.75;4994109;28;20049;-50
2021/04/06 09:39:24;;;;;;;4.78;1.00;;;;;;;12.09;47.79;102034.50;4997849;28;20046;-50
2021/04/06 09:41:51;;;;;;;2.70;0.77;;;;;;;12.05;47.58;102044.63;5005223;28;20050;-46
2021/04/06 09:44:25;;;;;;;2.17;1.02;;;;;;;12.43;46.26;102040.09;4995479;28;20042;-49
2021/04/06 09:46:56;;;;;;;4.13;0.70;;;;;;;12.76;44.14;102048.78;4997224;28;20093;-49
2021/04/06 09:49:32;;;;;;;3.70;0.82;;;;;;;12.68;45.48;102050.38;5008458;28;20038;-47
2021/04/06 09:52:01;;;;;;;6.70;1.48;;;;;;;12.72;44.66;102042.22;5008568;28;20117;-46
2021/04/06 09:54:38;;;;;;;1.25;1.15;;;;;;;12.35;43.58;102049.25;4996624;28;20064;-50
2021/04/06 09:57:11;;;;;;;3.08;0.60;;;;;;;12.08;41.38;102039.25;5012556;28;20116;-51
2021/04/06 09:59:42;;;;;;;7.30;1.02;;;;;;;11.50;43.94;102044.25;5013619;28;20125;-46
2021/04/06 10:02:15;;;;;;;2.80;0.50;;;;;;;11.39;43.29;102042.91;5028957;28;20103;-46
2021/04/06 10:04:47;;;;;;;3.50;0.90;;;;;;;10.60;44.06;102050.22;5003855;28;20038;-48
2021/04/06 10:07:33;;;;;;;8.10;1.05;;;;;;;9.57;44.02;102049.13;5011098;28;20495;-46
2021/04/06 10:10:03;;;;;;;3.80;0.60;;;;;;;8.77;45.57;102043.97;5008824;28;20046;-46
2021/04/06 10:12:32;;;;;;;5.45;1.08;;;;;;;8.14;46.12;102046.28;5013051;28;20093;-45
2021/04/06 10:15:00;;;;;;;5.75;1.13;;;;;;;7.67;47.00;102044.44;4999863;28;20844;-49
2021/04/06 10:17:38;;;;;;;3.40;0.80;;;;;;;7.38;47.93;102046.44;5014949;28;20444;-48
2021/04/06 10:20:21;;;;;;;3.58;0.63;;;;;;;7.15;47.91;102038.94;5028011;28;20065;-46
2021/04/06 10:22:52;;;;;;;2.33;1.00;;;;;;;7.16;48.46;102038.66;5025864;28;20136;-45
2021/04/06 10:25:27;;;;;;;4.35;0.65;;;;;;;7.23;48.72;102030.03;4999003;28;20577;-48
2021/04/06 10:27:56;;;;;;;3.95;0.70;;;;;;;7.61;48.43;102037.34;5009940;28;20137;-48
2021/04/06 10:30:47;;;;;;;5.28;0.70;;;;;;;8.22;48.02;102033.78;5014883;28;20136;-46
2021/04/06 10:33:24;;;;;;;3.97;0.50;;;;;;;9.17;47.46;102025.88;5018106;28;20494;-49
2021/04/06 10:36:04;;;;;;;5.13;0.60;;;;;;;9.79;45.88;102033.44;5017653;28;20137;-47
2021/04/06 10:38:37;;;;;;;4.03;1.15;;;;;;;10.05;46.10;102030.97;5017189;28;20826;-51
2021/04/06 10:41:07;;;;;;;2.50;0.60;;;;;;;10.00;45.42;102021.97;5011608;28;20435;-46
2021/04/06 10:43:39;;;;;;;2.60;1.33;;;;;;;9.50;45.72;102007.28;5009876;28;20053;-47
2021/04/06 10:46:16;;;;;;;3.53;1.30;;;;;;;9.04;46.25;102021.97;5029256;28;20377;-47
2021/04/06 10:48:45;;;;;;;4.18;0.88;;;;;;;8.89;46.37;102019.47;5004024;28;20049;-46
2021/04/06 10:51:19;;;;;;;6.55;0.88;;;;;;;8.80;46.05;102018.50;5003055;28;20137;-50
2021/04/06 10:53:49;;;;;;;9.93;2.95;;;;;;;8.87;46.14;102007.09;5009241;28;20570;-49
2021/04/06 10:56:27;;;;;;;3.13;1.02;;;;;;;8.60;44.71;102007.81;5016570;28;20073;-48
2021/04/06 10:59:06;;;;;;;2.45;1.00;;;;;;;8.51;45.45;102013.19;5020857;28;20038;-50
2021/04/06 11:01:43;;;;;;;5.53;1.38;;;;;;;8.80;44.87;101990.91;5013171;28;20060;-46
2021/04/06 11:04:21;;;;;;;1.67;0.60;;;;;;;9.19;45.18;102002.31;5017202;28;20069;-50
2021/04/06 11:06:58;;;;;;;2.75;0.38;;;;;;;9.51;45.11;101997.84;5006249;28;20133;-46
2021/04/06 11:09:34;;;;;;;1.70;0.63;;;;;;;9.25;45.18;102005.00;5009905;28;20042;-48
2021/04/06 11:12:01;;;;;;;3.13;1.05;;;;;;;8.87;45.39;102010.66;4997542;28;20099;-48
2021/04/06 11:14:31;;;;;;;1.92;0.60;;;;;;;8.76;45.65;102003.69;5017518;28;20053;-47
2021/04/06 11:17:00;;;;;;;3.15;0.90;;;;;;;8.84;45.66;101999.41;5009687;28;20092;-46
2021/04/06 11:19:29;;;;;;;5.55;0.70;;;;;;;8.91;45.31;102006.19;5021838;28;20045;-50
2021/04/06 11:22:02;;;;;;;3.05;0.70;;;;;;;8.94;45.31;101989.00;5016653;28;20141;-48
2021/04/06 11:24:30;;;;;;;2.65;0.52;;;;;;;9.06;45.34;101997.59;5020212;28;20069;-49
2021/04/06 11:27:00;;;;;;;4.47;1.00;;;;;;;9.20;45.14;102000.38;5008595;28;20049;-46
2021/04/06 11:29:29;;;;;;;1.65;0.43;;;;;;;8.89;45.05;101997.38;5009631;28;20087;-47
2021/04/06 11:32:02;;;;;;;2.80;0.43;;;;;;;8.60;44.99;101998.72;5015991;28;20513;-46
2021/04/06 11:34:30;;;;;;;2.53;0.55;;;;;;;8.40;45.37;101999.84;5018156;28;20073;-46
2021/04/06 11:36:56;;;;;;;1.90;1.27;;;;;;;8.24;44.96;101999.25;5022156;28;20069;-49
2021/04/06 11:39:34;;;;;;;1.02;0.60;;;;;;;8.15;44.81;102014.03;5012278;28;20061;-46
2021/04/06 11:42:03;;;;;;;2.58;0.70;;;;;;;8.04;45.59;102012.53;5017728;28;20050;-50
2021/04/06 11:44:30;;;;;;;2.38;0.60;;;;;;;8.02;45.69;102003.72;5010538;28;20398;-46
2021/04/06 11:46:57;;;;;;;1.48;0.38;;;;;;;8.14;45.91;101999.41;5018501;28;20130;-45
2021/04/06 11:49:24;;;;;;;5.25;1.20;;;;;;;8.29;46.32;102003.88;5021022;28;20179;-50
2021/04/06 11:51:50;;;;;;;1.38;0.52;;;;;;;8.39;46.29;101992.72;5008128;28;20133;-50
2021/04/06 11:54:20;;;;;;;2.47;0.50;;;;;;;8.47;46.23;101992.81;5015320;28;20049;-50
2021/04/06 11:56:48;;;;;;;1.45;0.38;;;;;;;8.38;45.36;101986.38;5013731;28;20073;-46
2021/04/06 11:59:15;;;;;;;4.25;0.68;;;;;;;8.28;45.11;101991.22;5022753;28;20127;-48